Overview Statistics Trail Chart Weather Telemetry Raw packets
 

This is the latest recevied weather packets stored in our database for station/object IZ1HMT-3. If no packets are shown the sender has not sent any weather packets the latest 10 day(s).

<< 13 14 15 16 17 18 19 >>
Time Temp. Humidity Pressure Rain* Wind** Luminosity Snow
1788220437 25° C 63% 1016.7 hPa - - - -
1788219834 25° C 63% 1016.7 hPa - - - -
1788219230 25° C 62% 1016.7 hPa - - - -
1788218627 25° C 62% 1016.7 hPa - - - -
1788218023 25.56° C 61% 1016.7 hPa - - - -
1788215609 25.56° C 60% 1016.6 hPa - - - -
1788212591 25.56° C 59% 1016.3 hPa - - - -
1788198099 29.44° C 52% 1015.1 hPa - - - -
1788197495 29.44° C 51% 1015.1 hPa - - - -
1788196892 29.44° C 51% 1015.1 hPa - - - -
1788195684 29.44° C 50% 1015.3 hPa - - - -
1788195081 30° C 51% 1015.1 hPa - - - -
1788194482 30° C 50% 1015.2 hPa - - - -
1788193874 30° C 50% 1015.1 hPa - - - -
1788193270 30.56° C 50% 1015.3 hPa - - - -
1788192667 30.56° C 49% 1015.3 hPa - - - -
1788192063 31.11° C 49% 1015.5 hPa - - - -
1788191464 30.56° C 50% 1015.6 hPa - - - -
1788190856 30.56° C 49% 1015.7 hPa - - - -
1788189648 30.56° C 49% 1015.9 hPa - - - -
1788186630 30.56° C 48% 1016.1 hPa - - - -
1788186023 31.11° C 48% 1016.1 hPa - - - -
1788185420 31.67° C 47% 1016.1 hPa - - - -
1788184816 32.22° C 46% 1016 hPa - - - -
1788184213 32.22° C 46% 1015.9 hPa - - - -

* Rain since midnight (hover to see other rain measurements)
** Current wind speed in m/s (hover to see current wind gust speed)